Time;durP1;ratioP1;P1;durP2;ratioP2;P2;SDS_P1;SDS_P2;PMS_P1;PMS_P2;Temp;Humidity;BMP_temperature;BMP_pressure;BME280_temperature;BME280_humidity;BME280_pressure;Samples;Min_cycle;Max_cycle;Signal;HPM_P1;HPM_P2
2021/07/09 00:00:57;;;;;;;4.17;3.67;;;16.00;99.90;;;;;;4993260;28;20636;-92
2021/07/09 00:03:25;;;;;;;3.87;2.90;;;15.90;99.90;;;;;;4990314;28;20646;-90
2021/07/09 00:05:59;;;;;;;5.50;3.80;;;15.90;99.90;;;;;;4990198;28;20716;-91
2021/07/09 00:08:26;;;;;;;4.27;3.27;;;16.00;99.90;;;;;;4989446;28;20652;-91
2021/07/09 00:10:55;;;;;;;4.60;3.80;;;15.90;99.90;;;;;;4992284;28;21223;-91
2021/07/09 00:13:22;;;;;;;5.67;3.67;;;15.90;99.90;;;;;;4992115;28;20632;-92
2021/07/09 00:15:48;;;;;;;4.83;3.30;;;15.90;99.90;;;;;;4991735;28;20672;-91
2021/07/09 00:18:15;;;;;;;4.00;3.37;;;15.90;99.90;;;;;;4989618;28;20629;-90
2021/07/09 00:20:43;;;;;;;3.87;3.07;;;16.00;99.90;;;;;;4990976;28;20652;-91
2021/07/09 00:23:10;;;;;;;4.70;4.30;;;15.90;99.90;;;;;;4995887;28;20647;-90
2021/07/09 00:25:39;;;;;;;3.93;3.60;;;16.00;99.90;;;;;;4990511;28;21255;-91
2021/07/09 00:28:06;;;;;;;3.93;3.53;;;16.00;99.90;;;;;;4987434;28;20580;-90
2021/07/09 00:30:33;;;;;;;4.30;3.90;;;16.10;99.90;;;;;;4984457;28;20661;-90
2021/07/09 00:33:00;;;;;;;3.67;3.37;;;16.10;99.90;;;;;;4981376;28;20642;-91
2021/07/09 00:35:27;;;;;;;4.60;4.30;;;16.10;99.90;;;;;;4990287;28;20711;-93
2021/07/09 00:37:56;;;;;;;4.27;3.87;;;16.10;99.90;;;;;;4987426;28;20640;-91
2021/07/09 00:40:23;;;;;;;4.17;3.70;;;16.10;99.90;;;;;;4987067;28;20690;-93
2021/07/09 00:42:50;;;;;;;3.90;3.60;;;16.10;99.90;;;;;;4987711;28;20651;-91
2021/07/09 00:45:17;;;;;;;4.50;3.43;;;16.10;99.90;;;;;;4989924;28;21237;-91
2021/07/09 00:47:45;;;;;;;4.20;3.90;;;16.10;99.90;;;;;;4994939;28;20642;-91
2021/07/09 00:50:13;;;;;;;4.30;4.00;;;16.10;99.90;;;;;;4989723;28;20680;-91
2021/07/09 00:52:40;;;;;;;4.23;3.40;;;16.10;99.90;;;;;;4989650;28;20620;-91
2021/07/09 00:55:10;;;;;;;4.30;4.00;;;16.10;99.90;;;;;;4987064;28;21093;-91
2021/07/09 00:57:40;;;;;;;4.10;3.43;;;16.00;99.90;;;;;;4986868;28;20633;-90
2021/07/09 01:00:08;;;;;;;8.10;3.47;;;16.00;99.90;;;;;;4988542;28;20703;-90
2021/07/09 01:02:36;;;;;;;4.47;4.07;;;16.00;99.90;;;;;;4987796;28;20636;-90
2021/07/09 01:05:04;;;;;;;5.80;3.90;;;15.90;99.90;;;;;;4985040;28;20584;-91
2021/07/09 01:07:31;;;;;;;4.67;4.30;;;15.90;99.90;;;;;;4990660;28;21162;-90
2021/07/09 01:09:58;;;;;;;4.03;3.63;;;15.90;99.90;;;;;;4988741;28;20664;-90
2021/07/09 01:12:28;;;;;;;5.97;4.00;;;15.90;99.90;;;;;;4992918;28;20620;-90
2021/07/09 01:14:56;;;;;;;4.47;4.17;;;15.90;99.90;;;;;;4989266;28;20635;-89
2021/07/09 01:17:23;;;;;;;6.30;3.77;;;15.80;99.90;;;;;;4994102;28;20671;-90
2021/07/09 01:19:50;;;;;;;5.33;4.10;;;15.80;99.90;;;;;;4991762;28;20759;-91
2021/07/09 01:22:18;;;;;;;8.27;4.27;;;15.80;99.90;;;;;;4993883;28;20616;-92
2021/07/09 01:24:47;;;;;;;5.50;4.97;;;15.80;99.90;;;;;;5004954;28;20689;-92
2021/07/09 01:27:14;;;;;;;4.80;4.40;;;15.80;99.90;;;;;;5015335;28;20587;-90
2021/07/09 01:29:42;;;;;;;5.20;4.70;;;15.70;99.90;;;;;;5001558;28;20860;-90
2021/07/09 01:32:09;;;;;;;5.23;4.57;;;15.70;99.90;;;;;;4992382;28;20822;-90
2021/07/09 01:34:36;;;;;;;6.43;4.67;;;15.80;99.90;;;;;;4993526;28;20625;-89
2021/07/09 01:37:13;;;;;;;5.40;4.50;;;15.70;99.90;;;;;;4993946;28;20668;-90
2021/07/09 01:39:40;;;;;;;4.80;4.50;;;15.70;99.90;;;;;;4996901;28;20644;-89
2021/07/09 01:42:10;;;;;;;6.33;5.70;;;15.70;99.90;;;;;;5000399;28;20615;-91
2021/07/09 01:44:38;;;;;;;4.47;4.17;;;15.80;99.90;;;;;;4999279;28;20920;-90
2021/07/09 01:47:06;;;;;;;5.20;4.17;;;15.70;99.90;;;;;;4999835;28;20632;-89
2021/07/09 01:49:47;;;;;;;6.53;4.60;;;15.70;99.90;;;;;;5003853;28;20683;-90
2021/07/09 01:52:14;;;;;;;5.10;4.13;;;15.70;99.90;;;;;;5002777;28;20655;-91
2021/07/09 01:54:41;;;;;;;5.63;5.00;;;15.70;99.90;;;;;;5003365;28;21023;-91
2021/07/09 01:57:08;;;;;;;9.60;4.80;;;15.70;99.90;;;;;;4999513;28;20671;-89
2021/07/09 01:59:36;;;;;;;5.90;4.83;;;15.70;99.90;;;;;;5000299;28;20644;-89
2021/07/09 02:02:04;;;;;;;5.30;4.80;;;15.70;99.90;;;;;;4991807;28;20648;-91
2021/07/09 02:04:31;;;;;;;4.93;4.43;;;15.70;99.90;;;;;;4991244;28;20628;-89
2021/07/09 02:06:59;;;;;;;4.80;4.40;;;15.70;99.90;;;;;;4993210;28;20621;-90
2021/07/09 02:09:26;;;;;;;5.10;4.73;;;15.70;99.90;;;;;;4989744;28;20642;-90
2021/07/09 02:11:52;;;;;;;5.30;4.90;;;15.70;99.90;;;;;;4998945;28;20616;-91
2021/07/09 02:14:20;;;;;;;5.87;5.47;;;15.70;99.90;;;;;;4993252;28;20631;-91
2021/07/09 02:16:51;;;;;;;6.23;5.27;;;15.70;99.90;;;;;;4990240;28;20668;-91
2021/07/09 02:19:18;;;;;;;6.17;5.67;;;15.70;99.90;;;;;;4992438;28;20679;-91
2021/07/09 02:21:48;;;;;;;6.23;5.30;;;15.70;99.90;;;;;;4991883;28;20965;-90
2021/07/09 02:24:16;;;;;;;3.97;3.70;;;15.70;99.90;;;;;;4991821;28;20611;-90
2021/07/09 02:26:43;;;;;;;5.47;4.67;;;15.80;99.90;;;;;;4990214;28;20621;-91
2021/07/09 02:29:10;;;;;;;5.00;4.57;;;15.70;99.90;;;;;;4978470;28;20647;-91
2021/07/09 02:31:37;;;;;;;4.97;4.50;;;15.70;99.90;;;;;;4991732;28;20627;-90
2021/07/09 02:34:05;;;;;;;4.20;3.90;;;15.70;99.90;;;;;;4991890;28;20640;-92
2021/07/09 02:36:32;;;;;;;5.10;4.70;;;15.80;99.90;;;;;;4992161;28;20676;-91
2021/07/09 02:39:01;;;;;;;4.70;4.30;;;15.70;99.90;;;;;;4989881;28;21004;-90
2021/07/09 02:41:29;;;;;;;5.00;3.93;;;15.70;99.90;;;;;;4991474;28;21610;-90
2021/07/09 02:43:56;;;;;;;4.37;4.07;;;15.70;99.90;;;;;;4993832;28;20632;-90
2021/07/09 02:46:22;;;;;;;7.00;3.80;;;15.70;99.90;;;;;;4988891;28;20641;-90
2021/07/09 02:48:49;;;;;;;5.30;4.07;;;15.70;99.90;;;;;;4987032;28;20617;-90
2021/07/09 02:51:17;;;;;;;6.57;4.67;;;15.70;99.90;;;;;;4990575;28;20661;-92
2021/07/09 02:53:44;;;;;;;4.90;3.60;;;15.70;99.90;;;;;;4989377;28;20617;-89
2021/07/09 02:56:11;;;;;;;5.93;3.90;;;15.70;99.90;;;;;;4990617;28;20998;-92
2021/07/09 02:58:38;;;;;;;4.07;3.77;;;15.70;99.90;;;;;;4983802;28;20625;-90
2021/07/09 03:01:06;;;;;;;5.37;4.23;;;15.70;99.90;;;;;;4989768;28;20682;-91
2021/07/09 03:03:33;;;;;;;4.93;4.07;;;15.70;99.90;;;;;;4991099;28;20623;-89
2021/07/09 03:06:00;;;;;;;4.27;3.97;;;15.60;99.90;;;;;;4990176;28;20987;-91
2021/07/09 03:08:28;;;;;;;3.93;3.60;;;15.60;99.90;;;;;;4990003;28;20617;-90
2021/07/09 03:10:55;;;;;;;4.10;3.80;;;15.60;99.90;;;;;;4989633;28;20648;-90
2021/07/09 03:13:22;;;;;;;4.60;4.20;;;15.70;99.90;;;;;;4990127;28;20640;-90
2021/07/09 03:15:49;;;;;;;5.67;4.10;;;15.70;99.90;;;;;;4985314;28;20666;-91
2021/07/09 03:18:16;;;;;;;6.37;3.93;;;15.60;99.90;;;;;;4990081;28;20994;-90
2021/07/09 03:20:43;;;;;;;4.80;4.50;;;15.60;99.90;;;;;;4988348;28;20636;-91
2021/07/09 03:23:11;;;;;;;4.60;4.17;;;15.70;99.90;;;;;;4990460;28;20631;-90
2021/07/09 03:25:52;;;;;;;5.00;4.30;;;15.70;99.90;;;;;;4992912;28;20617;-90
2021/07/09 03:28:20;;;;;;;4.00;3.70;;;15.70;99.90;;;;;;4996952;28;20613;-89
2021/07/09 03:30:47;;;;;;;6.93;4.63;;;15.70;99.90;;;;;;5012946;28;20668;-90
2021/07/09 03:33:15;;;;;;;4.50;4.07;;;15.70;99.90;;;;;;5005205;28;21043;-89
2021/07/09 03:35:42;;;;;;;4.50;4.10;;;15.70;99.90;;;;;;4990044;28;20939;-89
2021/07/09 03:38:09;;;;;;;4.93;4.43;;;15.70;99.90;;;;;;4989162;28;20671;-89
2021/07/09 03:40:37;;;;;;;4.67;4.17;;;15.70;99.90;;;;;;4992147;28;21466;-88
2021/07/09 03:43:06;;;;;;;5.43;4.20;;;15.70;99.90;;;;;;4983816;28;20621;-88
2021/07/09 03:45:33;;;;;;;5.60;4.50;;;15.70;99.90;;;;;;4984912;28;20633;-90
2021/07/09 03:47:59;;;;;;;4.67;4.27;;;15.60;99.90;;;;;;4987065;28;20617;-89
2021/07/09 03:50:26;;;;;;;5.63;5.20;;;15.60;99.90;;;;;;4988221;28;20660;-89
2021/07/09 03:52:53;;;;;;;4.50;4.10;;;15.60;99.90;;;;;;4991851;28;20718;-91
2021/07/09 03:55:20;;;;;;;5.67;5.30;;;15.60;99.90;;;;;;4980961;28;20628;-89
2021/07/09 03:57:47;;;;;;;4.90;4.50;;;15.60;99.90;;;;;;4989051;28;20661;-90
2021/07/09 04:00:17;;;;;;;5.20;4.70;;;15.60;99.90;;;;;;4988491;28;20648;-89
2021/07/09 04:02:44;;;;;;;5.47;4.97;;;15.60;99.90;;;;;;4989946;28;20964;-90
2021/07/09 04:05:12;;;;;;;5.50;4.90;;;15.60;99.90;;;;;;4990101;28;20629;-90
2021/07/09 04:07:44;;;;;;;6.77;5.37;;;15.70;99.90;;;;;;4988970;28;20635;-93
2021/07/09 04:10:12;;;;;;;6.87;5.83;;;15.70;99.90;;;;;;4998703;28;20730;-90
2021/07/09 04:12:39;;;;;;;7.17;4.30;;;15.60;99.90;;;;;;5005944;28;20647;-91
2021/07/09 04:15:08;;;;;;;5.03;4.63;;;15.60;99.90;;;;;;5004713;28;20711;-92
2021/07/09 04:17:36;;;;;;;4.73;4.43;;;15.60;99.90;;;;;;4990913;28;20672;-93
2021/07/09 04:20:04;;;;;;;6.83;4.60;;;15.70;99.90;;;;;;4987946;28;20763;-93
2021/07/09 04:22:31;;;;;;;5.07;4.13;;;15.60;99.90;;;;;;5002598;28;20643;-91
2021/07/09 04:24:58;;;;;;;4.53;4.07;;;15.60;99.90;;;;;;4991964;28;20620;-91
2021/07/09 04:27:25;;;;;;;5.33;4.30;;;15.50;99.90;;;;;;4986841;28;20641;-91
2021/07/09 04:32:51;;;;;;;5.60;5.20;;;15.40;99.90;;;;;;5175400;27;20708;-91
2021/07/09 04:35:18;;;;;;;8.23;5.60;;;15.40;99.90;;;;;;5088578;27;20636;-91
2021/07/09 04:37:45;;;;;;;6.13;5.70;;;15.40;99.90;;;;;;5083722;27;20620;-91
2021/07/09 04:40:16;;;;;;;6.23;4.90;;;15.40;99.90;;;;;;5084251;27;20633;-90
2021/07/09 04:42:45;;;;;;;5.43;4.90;;;15.40;99.90;;;;;;5070728;27;20653;-92
2021/07/09 04:45:12;;;;;;;4.73;4.20;;;15.50;99.90;;;;;;5083614;27;21142;-90
2021/07/09 04:47:39;;;;;;;5.10;4.70;;;15.50;99.90;;;;;;5081581;27;21204;-91
2021/07/09 04:50:08;;;;;;;5.50;5.03;;;15.40;99.90;;;;;;5076036;27;20686;-91
2021/07/09 04:52:36;;;;;;;5.00;4.60;;;15.40;99.90;;;;;;5092015;27;21099;-90
2021/07/09 04:55:03;;;;;;;5.00;4.60;;;15.30;99.90;;;;;;5076522;28;21243;-91
2021/07/09 04:57:31;;;;;;;5.07;4.70;;;15.30;99.90;;;;;;5067812;27;20704;-90
2021/07/09 04:59:58;;;;;;;5.03;4.20;;;15.30;99.90;;;;;;5088804;27;20631;-93
2021/07/09 05:02:38;;;;;;;4.73;4.40;;;15.30;99.90;;;;;;5081484;27;20702;-92
2021/07/09 05:05:09;;;;;;;5.07;4.60;;;15.30;99.90;;;;;;5076544;27;20621;-91
2021/07/09 05:07:36;;;;;;;4.37;4.00;;;15.30;99.90;;;;;;5090947;27;20632;-90
2021/07/09 05:13:21;;;;;;;4.77;4.37;;;15.30;99.90;;;;;;5108187;27;21015;-92
2021/07/09 05:15:52;;;;;;;4.63;4.20;;;15.30;99.90;;;;;;5089807;27;20739;-92
2021/07/09 05:18:19;;;;;;;4.77;4.23;;;15.20;99.90;;;;;;5102786;27;21196;-90
2021/07/09 05:20:49;;;;;;;5.77;4.50;;;15.30;99.90;;;;;;5084318;27;21252;-90
2021/07/09 05:23:16;;;;;;;4.60;4.27;;;15.30;99.90;;;;;;5093716;27;21234;-91
2021/07/09 05:25:43;;;;;;;4.70;4.40;;;15.30;99.90;;;;;;5092242;27;20628;-92
2021/07/09 05:28:10;;;;;;;4.80;4.40;;;15.30;99.90;;;;;;5081973;27;20622;-91
2021/07/09 05:30:37;;;;;;;4.80;4.40;;;15.40;99.90;;;;;;5081737;27;21205;-92
2021/07/09 05:33:04;;;;;;;8.50;4.37;;;15.30;99.90;;;;;;5094254;27;20656;-92
2021/07/09 05:35:35;;;;;;;4.87;4.13;;;15.40;99.90;;;;;;5093878;27;20623;-92
2021/07/09 05:38:04;;;;;;;6.57;4.47;;;15.30;99.90;;;;;;5083141;27;20653;-92
2021/07/09 05:40:31;;;;;;;4.50;4.20;;;15.40;99.90;;;;;;5103894;27;20721;-92
2021/07/09 05:42:58;;;;;;;4.83;4.33;;;15.40;99.90;;;;;;5089776;27;20673;-92
2021/07/09 05:45:25;;;;;;;5.70;4.77;;;15.50;99.90;;;;;;5068094;27;20629;-93
2021/07/09 05:47:52;;;;;;;4.37;4.00;;;15.50;99.90;;;;;;5077923;27;20660;-92
2021/07/09 05:50:19;;;;;;;4.77;4.37;;;15.50;99.90;;;;;;5068454;27;21176;-91
2021/07/09 05:52:54;;;;;;;4.67;4.20;;;15.50;99.90;;;;;;5066157;27;20727;-92
2021/07/09 05:55:29;;;;;;;4.40;4.00;;;15.50;99.90;;;;;;5068921;27;20657;-92
2021/07/09 05:57:56;;;;;;;4.33;3.73;;;15.60;99.90;;;;;;5087923;27;20723;-91
2021/07/09 06:00:27;;;;;;;4.23;3.93;;;15.60;99.90;;;;;;5084016;27;20629;-91
2021/07/09 06:02:55;;;;;;;4.70;4.30;;;15.60;99.90;;;;;;5062974;27;20752;-92
2021/07/09 06:05:24;;;;;;;3.83;3.53;;;15.60;99.90;;;;;;5075430;27;20638;-91
2021/07/09 06:07:53;;;;;;;4.37;4.07;;;15.60;99.90;;;;;;5066889;27;20640;-92
2021/07/09 06:10:20;;;;;;;5.20;3.50;;;15.60;99.90;;;;;;5070005;27;20644;-92
2021/07/09 06:12:49;;;;;;;5.27;4.63;;;15.60;99.90;;;;;;5068233;27;20694;-93
2021/07/09 06:15:16;;;;;;;5.30;4.03;;;15.60;99.90;;;;;;5062940;27;21225;-92
2021/07/09 06:17:43;;;;;;;5.63;4.73;;;15.60;99.90;;;;;;5061187;27;20640;-92
2021/07/09 06:20:10;;;;;;;4.83;4.40;;;15.70;99.90;;;;;;5073139;27;20628;-92
2021/07/09 06:22:37;;;;;;;4.40;4.10;;;15.70;99.90;;;;;;5066414;27;20677;-92
2021/07/09 06:25:06;;;;;;;5.90;5.40;;;15.70;99.90;;;;;;5064033;27;20728;-92
2021/07/09 06:27:35;;;;;;;5.30;4.80;;;15.70;99.90;;;;;;5065503;27;20621;-92
2021/07/09 06:30:05;;;;;;;8.73;5.20;;;15.70;99.90;;;;;;5067907;27;20665;-93
2021/07/09 06:32:32;;;;;;;8.83;4.73;;;15.70;99.90;;;;;;5086515;27;20680;-92
2021/07/09 06:34:59;;;;;;;6.80;5.07;;;15.80;99.90;;;;;;5066165;27;20635;-92
2021/07/09 06:37:27;;;;;;;5.43;4.97;;;15.90;99.90;;;;;;5072353;27;20661;-92
2021/07/09 06:39:54;;;;;;;4.40;3.43;;;15.90;99.90;;;;;;5060753;27;20629;-92
2021/07/09 06:42:21;;;;;;;6.23;4.70;;;15.90;99.90;;;;;;5097092;27;20660;-92
2021/07/09 06:44:48;;;;;;;5.70;5.30;;;15.90;99.90;;;;;;5064223;27;21116;-92
2021/07/09 06:47:16;;;;;;;5.67;5.17;;;16.00;99.90;;;;;;5068375;27;20760;-93
2021/07/09 06:49:43;;;;;;;5.70;5.20;;;16.10;99.90;;;;;;5069681;27;20637;-91
2021/07/09 06:52:13;;;;;;;6.23;5.70;;;16.00;99.90;;;;;;5071662;27;20677;-92
2021/07/09 06:54:41;;;;;;;6.03;5.47;;;16.00;99.90;;;;;;5065186;27;21036;-92
2021/07/09 06:57:08;;;;;;;5.63;5.13;;;15.90;99.90;;;;;;5056903;27;21072;-92
2021/07/09 06:59:35;;;;;;;6.33;5.90;;;16.00;99.90;;;;;;5062011;27;21206;-92
2021/07/09 07:02:02;;;;;;;5.70;5.30;;;16.00;99.90;;;;;;5055123;27;20678;-93
2021/07/09 07:04:30;;;;;;;5.57;5.07;;;16.00;99.90;;;;;;5061633;27;21237;-92
2021/07/09 07:06:57;;;;;;;6.50;6.00;;;16.00;99.90;;;;;;5058416;27;21159;-92
2021/07/09 07:09:24;;;;;;;6.90;6.20;;;15.90;99.90;;;;;;5057173;27;20981;-92
2021/07/09 07:11:53;;;;;;;6.30;5.60;;;15.90;99.90;;;;;;5057137;27;20680;-92
2021/07/09 07:14:21;;;;;;;5.13;4.63;;;15.90;99.90;;;;;;5059286;27;20645;-92
2021/07/09 07:16:48;;;;;;;7.50;6.20;;;15.90;99.90;;;;;;5063681;27;21070;-93
2021/07/09 07:19:15;;;;;;;5.70;5.20;;;16.00;99.90;;;;;;5064787;27;20740;-92
2021/07/09 07:21:45;;;;;;;5.30;4.83;;;16.10;99.90;;;;;;5070964;27;20784;-92
2021/07/09 07:24:14;;;;;;;4.40;4.00;;;16.30;99.90;;;;;;5060312;27;20719;-92
2021/07/09 07:26:41;;;;;;;5.97;5.47;;;16.30;99.90;;;;;;5052252;27;20622;-92
2021/07/09 07:29:18;;;;;;;5.00;4.50;;;16.40;99.90;;;;;;5058546;27;21621;-91
2021/07/09 07:31:45;;;;;;;4.73;4.33;;;16.40;99.90;;;;;;5047305;27;20670;-93
2021/07/09 07:34:11;;;;;;;4.20;3.90;;;16.50;99.90;;;;;;5058280;27;20629;-92
2021/07/09 07:36:38;;;;;;;4.50;3.53;;;16.50;99.90;;;;;;5058321;27;20713;-91
2021/07/09 07:39:07;;;;;;;4.83;3.87;;;16.60;99.90;;;;;;5050168;27;20663;-92
2021/07/09 07:41:34;;;;;;;5.07;3.87;;;16.60;99.90;;;;;;5054346;27;20662;-91
2021/07/09 07:44:01;;;;;;;4.80;4.40;;;16.70;99.90;;;;;;5059497;27;20717;-92
2021/07/09 07:46:29;;;;;;;4.83;4.33;;;16.90;99.90;;;;;;5054256;27;20629;-92
2021/07/09 07:48:56;;;;;;;6.40;4.27;;;17.00;99.90;;;;;;5068915;27;20708;-92
2021/07/09 07:51:23;;;;;;;4.40;4.00;;;17.00;99.90;;;;;;5056537;27;20656;-91
2021/07/09 07:53:52;;;;;;;5.00;3.87;;;17.20;99.90;;;;;;5057295;27;20640;-92
2021/07/09 07:56:22;;;;;;;4.77;4.37;;;17.30;99.90;;;;;;5071168;27;20610;-91
2021/07/09 07:58:51;;;;;;;6.70;4.00;;;17.40;99.90;;;;;;5084009;27;20689;-92
2021/07/09 08:01:19;;;;;;;3.80;3.50;;;17.50;99.90;;;;;;5075263;27;21302;-93
2021/07/09 08:03:47;;;;;;;4.70;3.87;;;17.50;99.90;;;;;;5058151;27;20625;-93
2021/07/09 08:06:16;;;;;;;4.00;3.70;;;17.60;99.90;;;;;;5057678;27;20633;-93
2021/07/09 08:08:43;;;;;;;5.00;3.60;;;17.70;99.90;;;;;;5061794;27;20625;-92
2021/07/09 08:11:11;;;;;;;4.30;3.90;;;17.80;99.90;;;;;;5059328;27;21132;-92
2021/07/09 08:13:40;;;;;;;5.03;4.57;;;17.70;99.90;;;;;;5059274;27;21265;-92
2021/07/09 08:16:07;;;;;;;3.93;3.63;;;17.90;99.90;;;;;;5053102;27;20624;-93
2021/07/09 08:18:35;;;;;;;7.00;4.13;;;17.80;99.90;;;;;;5054531;27;20645;-92
2021/07/09 08:21:02;;;;;;;7.30;4.33;;;17.90;99.90;;;;;;5060819;27;20727;-92
2021/07/09 08:23:31;;;;;;;5.53;4.83;;;18.00;99.90;;;;;;5060711;27;20632;-93
2021/07/09 08:25:59;;;;;;;3.50;3.20;;;18.10;99.90;;;;;;5060387;27;20634;-93
2021/07/09 08:28:27;;;;;;;6.47;3.93;;;18.20;99.90;;;;;;5067312;27;20990;-92
2021/07/09 08:30:58;;;;;;;5.00;4.50;;;18.20;99.90;;;;;;5077885;27;20744;-92
2021/07/09 08:33:25;;;;;;;5.50;4.53;;;18.20;99.90;;;;;;5069492;27;20654;-92
2021/07/09 08:35:52;;;;;;;16.70;14.57;;;18.10;99.90;;;;;;5071854;27;20631;-92
2021/07/09 08:38:19;;;;;;;6.07;5.47;;;18.10;99.90;;;;;;5063617;27;20632;-92
2021/07/09 08:40:46;;;;;;;6.63;5.17;;;18.20;99.90;;;;;;5078904;27;20658;-93
2021/07/09 08:43:13;;;;;;;5.93;5.33;;;18.30;99.90;;;;;;5094122;27;20718;-92
2021/07/09 08:45:40;;;;;;;5.13;4.73;;;18.30;99.90;;;;;;5072766;27;20621;-92
2021/07/09 08:48:09;;;;;;;11.37;9.60;;;18.50;99.90;;;;;;5065571;27;20625;-93
2021/07/09 08:50:37;;;;;;;5.53;5.03;;;18.70;99.90;;;;;;5063725;27;20630;-93
2021/07/09 08:53:05;;;;;;;5.00;4.47;;;18.80;99.90;;;;;;5062137;27;20756;-92
2021/07/09 08:55:32;;;;;;;4.57;4.20;;;18.80;99.90;;;;;;5067114;27;20592;-92
2021/07/09 08:57:59;;;;;;;4.80;4.37;;;18.90;99.90;;;;;;5152948;22;21054;-92
2021/07/09 09:00:44;;;;;;;5.17;4.67;;;18.80;99.90;;;;;;5089677;28;20671;-91
2021/07/09 09:03:16;;;;;;;4.90;3.97;;;18.80;99.90;;;;;;5085976;28;20616;-91
2021/07/09 09:05:44;;;;;;;4.80;4.50;;;18.80;99.90;;;;;;5088052;28;20584;-92
2021/07/09 09:08:13;;;;;;;6.23;5.30;;;18.90;99.90;;;;;;5073024;28;21027;-91
2021/07/09 09:10:42;;;;;;;4.47;4.17;;;19.20;99.90;;;;;;5067372;28;20621;-92
2021/07/09 09:13:18;;;;;;;4.93;4.53;;;19.40;99.90;;;;;;5070972;28;21230;-92
2021/07/09 09:15:57;;;;;;;4.63;4.23;;;20.00;99.90;;;;;;5068249;28;21195;-91
2021/07/09 09:18:29;;;;;;;5.20;4.70;;;20.20;99.90;;;;;;5072565;28;20625;-91
2021/07/09 09:20:59;;;;;;;4.60;3.67;;;20.90;99.90;;;;;;5076197;28;20716;-93
2021/07/09 09:23:27;;;;;;;4.07;3.67;;;20.80;99.90;;;;;;5077036;28;20684;-96
2021/07/09 09:25:59;;;;;;;8.33;4.23;;;20.80;99.90;;;;;;5081033;28;20735;-92
2021/07/09 09:28:27;;;;;;;5.23;4.43;;;20.80;99.90;;;;;;5087834;28;20644;-93
2021/07/09 09:30:57;;;;;;;5.07;4.10;;;20.80;99.90;;;;;;5082697;28;20628;-94
2021/07/09 09:33:40;;;;;;;5.80;4.90;;;20.80;99.90;;;;;;5067333;28;20654;-91
2021/07/09 09:36:12;;;;;;;6.00;5.10;;;20.70;99.90;;;;;;5071648;28;20645;-91
2021/07/09 09:38:40;;;;;;;5.23;4.73;;;20.60;99.90;;;;;;5069585;28;20699;-93
2021/07/09 09:41:19;;;;;;;5.43;4.63;;;20.70;99.90;;;;;;5072525;28;20616;-93
2021/07/09 09:43:47;;;;;;;4.37;3.97;;;21.10;99.90;;;;;;5071865;28;20617;-93
2021/07/09 09:46:15;;;;;;;4.90;4.43;;;21.00;99.90;;;;;;5067696;28;20633;-92
2021/07/09 09:48:46;;;;;;;6.30;5.00;;;21.30;99.90;;;;;;5071314;28;20652;-93
2021/07/09 09:51:30;;;;;;;5.93;4.50;;;21.30;99.90;;;;;;5071863;28;20667;-93
2021/07/09 09:53:59;;;;;;;7.07;4.40;;;21.30;99.90;;;;;;5070227;28;20664;-93
2021/07/09 09:56:38;;;;;;;5.30;3.63;;;21.10;99.90;;;;;;5066777;28;20631;-93
2021/07/09 09:59:19;;;;;;;5.53;5.00;;;20.90;99.90;;;;;;5060975;28;20637;-93
2021/07/09 10:01:52;;;;;;;4.73;4.13;;;21.00;99.90;;;;;;5065779;28;21190;-93
2021/07/09 10:04:23;;;;;;;4.37;4.07;;;21.10;99.90;;;;;;5068351;28;21058;-93
2021/07/09 10:06:51;;;;;;;4.97;4.53;;;21.10;99.90;;;;;;5033856;28;20628;-93
2021/07/09 10:09:20;;;;;;;6.83;5.13;;;20.90;99.90;;;;;;5069051;28;20704;-93
2021/07/09 10:11:47;;;;;;;5.20;4.70;;;20.90;99.90;;;;;;5070224;28;20636;-93
2021/07/09 10:14:16;;;;;;;5.77;5.10;;;20.70;99.90;;;;;;5071305;28;20652;-93
2021/07/09 10:16:45;;;;;;;5.93;4.30;;;21.00;99.90;;;;;;5066200;28;20625;-93
2021/07/09 10:19:31;;;;;;;5.80;3.80;;;21.00;99.90;;;;;;5071471;28;20621;-91
2021/07/09 10:21:58;;;;;;;5.37;3.90;;;21.10;99.90;;;;;;5074607;28;20662;-94
2021/07/09 10:24:26;;;;;;;3.80;3.40;;;21.00;99.90;;;;;;5068746;28;20633;-93
2021/07/09 10:26:55;;;;;;;4.40;3.57;;;21.00;99.90;;;;;;5066124;28;20664;-93
2021/07/09 10:29:24;;;;;;;3.73;3.47;;;21.00;99.90;;;;;;5049012;28;20672;-94
2021/07/09 10:31:53;;;;;;;5.13;4.13;;;20.90;99.90;;;;;;5067903;28;20628;-94
2021/07/09 10:34:31;;;;;;;7.03;4.17;;;21.10;99.90;;;;;;5016197;28;20734;-93
2021/07/09 10:37:01;;;;;;;4.20;3.80;;;21.50;99.90;;;;;;5069049;28;20635;-93
2021/07/09 10:39:45;;;;;;;4.23;3.83;;;21.50;99.90;;;;;;5068712;28;20637;-93
2021/07/09 10:42:14;;;;;;;5.47;4.10;;;21.60;99.90;;;;;;5068202;28;20644;-93
2021/07/09 10:45:14;;;;;;;4.40;4.10;;;21.70;99.90;;;;;;5069246;28;21454;-93
2021/07/09 10:47:46;;;;;;;5.03;4.60;;;22.10;99.90;;;;;;5057506;28;21207;-94
2021/07/09 10:50:17;;;;;;;4.60;4.30;;;22.60;99.90;;;;;;5071998;28;20756;-93
2021/07/09 10:52:46;;;;;;;4.60;4.27;;;22.40;99.90;;;;;;5084200;28;20632;-93
2021/07/09 10:55:40;;;;;;;4.70;4.20;;;22.30;99.90;;;;;;5090527;28;20613;-94
2021/07/09 10:58:28;;;;;;;5.80;4.90;;;22.20;99.90;;;;;;5078484;28;20665;-93
2021/07/09 11:00:57;;;;;;;5.00;4.60;;;22.00;99.90;;;;;;5084215;28;20700;-92
2021/07/09 11:03:30;;;;;;;5.40;4.63;;;21.80;99.90;;;;;;5081702;28;20645;-93
2021/07/09 11:06:00;;;;;;;6.27;5.50;;;21.70;99.90;;;;;;5081844;28;20629;-92
2021/07/09 11:08:52;;;;;;;6.43;5.70;;;21.40;99.90;;;;;;5072166;28;20641;-92
2021/07/09 11:11:38;;;;;;;7.17;6.47;;;21.00;99.90;;;;;;5073103;28;20712;-93
2021/07/09 11:14:11;;;;;;;6.23;5.73;;;21.20;99.90;;;;;;5077987;28;20698;-93
2021/07/09 11:16:40;;;;;;;7.23;5.73;;;22.00;99.90;;;;;;5075788;28;20645;-93
2021/07/09 11:19:13;;;;;;;6.63;6.07;;;22.00;99.90;;;;;;5068058;28;21092;-92
2021/07/09 11:22:06;;;;;;;7.43;6.60;;;21.90;99.90;;;;;;5068568;28;20609;-93
2021/07/09 11:24:41;;;;;;;9.33;7.03;;;21.40;99.90;;;;;;5066995;28;20664;-93
2021/07/09 11:27:11;;;;;;;8.00;7.20;;;21.20;99.90;;;;;;5069917;28;20664;-92
2021/07/09 11:29:42;;;;;;;8.20;7.50;;;21.50;99.90;;;;;;5069485;28;20629;-94
2021/07/09 11:32:11;;;;;;;8.40;7.60;;;22.20;99.90;;;;;;5067053;28;20970;-92
2021/07/09 11:34:41;;;;;;;8.07;7.37;;;21.90;99.90;;;;;;5065866;28;21175;-92
2021/07/09 11:37:12;;;;;;;8.07;7.27;;;21.70;99.90;;;;;;5062751;28;20653;-92
2021/07/09 11:39:41;;;;;;;12.10;7.03;;;21.70;99.90;;;;;;5069717;28;20590;-92
2021/07/09 11:42:10;;;;;;;7.80;7.03;;;21.70;99.90;;;;;;5064457;28;20633;-95
2021/07/09 11:44:40;;;;;;;6.77;6.27;;;22.50;99.90;;;;;;5069215;28;20756;-94
2021/07/09 11:47:10;;;;;;;5.87;5.47;;;24.00;99.90;;;;;;5066478;28;21005;-94
2021/07/09 11:49:39;;;;;;;6.03;5.57;;;23.80;99.90;;;;;;5067091;28;20627;-94
2021/07/09 11:52:10;;;;;;;6.60;6.13;;;23.20;99.90;;;;;;5068775;28;20653;-93
2021/07/09 11:54:41;;;;;;;6.90;6.20;;;22.60;99.90;;;;;;5067522;28;21008;-93
2021/07/09 11:57:13;;;;;;;7.27;6.77;;;22.60;99.90;;;;;;5066557;28;20997;-93
2021/07/09 11:59:42;;;;;;;7.70;7.00;;;22.40;99.90;;;;;;5066870;28;20999;-93
2021/07/09 12:02:12;;;;;;;8.70;7.90;;;21.70;99.90;;;;;;5068220;28;20614;-93
2021/07/09 12:04:45;;;;;;;9.53;8.33;;;21.30;99.90;;;;;;5049978;28;20653;-93
2021/07/09 12:07:42;;;;;;;9.87;9.07;;;21.50;99.90;;;;;;5064310;28;20660;-93
2021/07/09 12:10:12;;;;;;;9.03;8.33;;;22.60;99.90;;;;;;5052155;28;20633;-93
2021/07/09 12:12:42;;;;;;;9.33;8.70;;;22.40;99.90;;;;;;5071004;28;20624;-93
2021/07/09 12:15:15;;;;;;;11.13;10.23;;;22.10;99.90;;;;;;5085539;28;20620;-93
2021/07/09 12:17:45;;;;;;;12.87;11.70;;;21.20;99.90;;;;;;5091113;28;20683;-93
2021/07/09 12:20:17;;;;;;;11.97;10.87;;;20.60;99.90;;;;;;5089145;28;20648;-92
2021/07/09 12:22:51;;;;;;;10.87;9.87;;;20.30;99.90;;;;;;5082438;28;21174;-93
2021/07/09 12:25:20;;;;;;;11.20;10.33;;;20.20;99.90;;;;;;5070044;28;21174;-93
2021/07/09 12:27:48;;;;;;;10.47;9.67;;;20.10;99.90;;;;;;5064064;28;20767;-93
2021/07/09 12:30:18;;;;;;;11.07;9.30;;;20.20;99.90;;;;;;5070690;28;20672;-94
2021/07/09 12:32:56;;;;;;;8.20;7.50;;;20.40;99.90;;;;;;5078356;28;20716;-93
2021/07/09 12:35:24;;;;;;;9.53;8.57;;;20.40;99.90;;;;;;5066472;28;20676;-93
2021/07/09 12:38:04;;;;;;;10.73;9.33;;;20.40;99.90;;;;;;5068022;28;20649;-93
2021/07/09 12:40:35;;;;;;;9.50;8.70;;;20.40;99.90;;;;;;5068966;28;20604;-94
2021/07/09 12:43:17;;;;;;;9.07;8.23;;;20.50;99.90;;;;;;5067424;28;20637;-94
2021/07/09 12:45:59;;;;;;;10.97;9.87;;;20.70;99.90;;;;;;5066107;28;20619;-94
2021/07/09 12:48:45;;;;;;;10.50;9.70;;;21.00;99.90;;;;;;5045994;28;21417;-94
2021/07/09 12:51:16;;;;;;;9.17;8.30;;;21.10;99.90;;;;;;5067656;28;20637;-94
2021/07/09 12:53:52;;;;;;;9.53;8.63;;;21.20;99.90;;;;;;5068192;28;20578;-93
2021/07/09 12:56:20;;;;;;;9.50;8.70;;;21.60;99.90;;;;;;5067488;28;20616;-94
2021/07/09 12:58:49;;;;;;;7.87;7.30;;;21.70;99.90;;;;;;5062709;28;20649;-94
2021/07/09 13:01:16;;;;;;;8.17;7.43;;;21.90;99.90;;;;;;5071381;28;20627;-93
2021/07/09 13:03:45;;;;;;;7.83;7.33;;;23.20;99.90;;;;;;5070501;28;21149;-93